Wetterdaten vom Freitag, 22. Oktober 2021

Temperatur Taupunkt Windchill Luftfeuchte Luftdruck Solarstrahlung Regen ET
(Verdunstung von Wasser)
Wind
Max 7.4 °C
00:00
5.5 °C
00:00
7.4 °C
00:10
93%
03:05
1015 hPa
04:20
0 W/m²
00:00
9.7 km/h
00:20 km/h
Durchschnitt 5.6 °C 4.2 °C 5.4 °C 91% 1013.9 hPa 0 W/m² 0 mm 0 mm 5.2 km/h
Min 4.2 °C
04:05
3.2 °C
04:05
1.6 °C
04:15
88%
00:00
1012.3 hPa
00:00
4.8 km/h (Böe)
02:25 km/h
Zeit
00:00 7.4 °C 5.5 °C 6.9 °C 88% 1012.3 hPa 0 W/m² 0.0 mm 0.000 mm 7.0 km/h
00:05 7.4 °C 5.5 °C 5.5 °C 88% 1012.3 hPa 0 W/m² 0.0 mm 0.000 mm 8.9 km/h
00:10 7.4 °C 5.5 °C 7.4 °C 88% 1012.4 hPa 0 W/m² 0.0 mm 0.000 mm 6.3 km/h
00:15 7.3 °C 5.4 °C 7.0 °C 88% 1012.5 hPa 0 W/m² 0.0 mm 0.000 mm 6.8 km/h
00:20 7.3 °C 5.4 °C 4.8 °C 88% 1012.6 hPa 0 W/m² 0.0 mm 0.000 mm 9.7 km/h
00:25 7.2 °C 5.3 °C 7.2 °C 88% 1012.7 hPa 0 W/m² 0.0 mm 0.000 mm 4.7 km/h
00:30 7.2 °C 5.3 °C 7.2 °C 88% 1012.8 hPa 0 W/m² 0.0 mm 0.000 mm 5.3 km/h
00:35 7.2 °C 5.3 °C 7.2 °C 88% 1012.9 hPa 0 W/m² 0.0 mm 0.000 mm 6.3 km/h
00:40 7.1 °C 5.2 °C 6.0 °C 88% 1013.0 hPa 0 W/m² 0.0 mm 0.000 mm 7.8 km/h
00:45 7.0 °C 5.2 °C 7.0 °C 88% 1013.0 hPa 0 W/m² 0.0 mm 0.000 mm 2.7 km/h
00:50 6.9 °C 5.1 °C 6.9 °C 88% 1013.1 hPa 0 W/m² 0.0 mm 0.000 mm 3.0 km/h
00:55 6.8 °C 5.0 °C 6.8 °C 88% 1013.2 hPa 0 W/m² 0.0 mm 0.000 mm 3.9 km/h
01:00 6.7 °C 4.9 °C 6.7 °C 88% 1013.2 hPa 0 W/m² 0.0 mm 0.000 mm 3.9 km/h
01:05 6.6 °C 4.8 °C 6.6 °C 88% 1013.4 hPa 0 W/m² 0.0 mm 0.000 mm 5.9 km/h
01:10 6.4 °C 4.7 °C 6.4 °C 89% 1013.4 hPa 0 W/m² 0.0 mm 0.000 mm 3.6 km/h
01:15 6.4 °C 4.7 °C 6.4 °C 89% 1013.4 hPa 0 W/m² 0.0 mm 0.000 mm 5.3 km/h
01:20 6.3 °C 4.6 °C 6.2 °C 89% 1013.5 hPa 0 W/m² 0.0 mm 0.000 mm 6.6 km/h
01:25 6.2 °C 4.5 °C 5.2 °C 89% 1013.5 hPa 0 W/m² 0.0 mm 0.000 mm 7.6 km/h
01:30 6.2 °C 4.7 °C 6.2 °C 90% 1013.6 hPa 0 W/m² 0.0 mm 0.000 mm 4.3 km/h
01:35 6.1 °C 4.6 °C 6.1 °C 90% 1013.6 hPa 0 W/m² 0.0 mm 0.000 mm 5.1 km/h
01:40 6.1 °C 4.6 °C 6.1 °C 90% 1013.7 hPa 0 W/m² 0.0 mm 0.000 mm 3.5 km/h
01:45 5.9 °C 4.2 °C 5.9 °C 89% 1013.8 hPa 0 W/m² 0.0 mm 0.000 mm 2.8 km/h
01:50 5.9 °C 4.4 °C 5.9 °C 90% 1013.7 hPa 0 W/m² 0.0 mm 0.000 mm 1.8 km/h
01:55 5.8 °C 4.3 °C 5.8 °C 90% 1013.7 hPa 0 W/m² 0.0 mm 0.000 mm 3.6 km/h
02:00 5.6 °C 4.1 °C 5.6 °C 90% 1014.0 hPa 0 W/m² 0.0 mm 0.000 mm 3.6 km/h
02:05 5.5 °C 4.0 °C 5.5 °C 90% 1014.1 hPa 0 W/m² 0.0 mm 0.000 mm 5.1 km/h
02:10 5.4 °C 3.9 °C 5.4 °C 90% 1014.1 hPa 0 W/m² 0.0 mm 0.000 mm 4.0 km/h
02:15 5.3 °C 4.0 °C 5.3 °C 91% 1014.2 hPa 0 W/m² 0.0 mm 0.000 mm 3.9 km/h
02:20 5.2 °C 3.9 °C 5.2 °C 91% 1014.3 hPa 0 W/m² 0.0 mm 0.000 mm 3.9 km/h
02:25 5.2 °C 3.9 °C 5.2 °C 91% 1014.3 hPa 0 W/m² 0.0 mm 0.000 mm 1.8 km/h
02:30 5.1 °C 3.9 °C 5.1 °C 92% 1014.4 hPa 0 W/m² 0.0 mm 0.000 mm 2.4 km/h
02:35 5.1 °C 3.9 °C 5.1 °C 92% 1014.4 hPa 0 W/m² 0.0 mm 0.000 mm 3.5 km/h
02:40 5.1 °C 3.9 °C 5.1 °C 92% 1014.5 hPa 0 W/m² 0.0 mm 0.000 mm 4.4 km/h
02:45 4.9 °C 3.7 °C 4.9 °C 92% 1014.5 hPa 0 W/m² 0.0 mm 0.000 mm 6.2 km/h
02:50 4.9 °C 3.7 °C 4.1 °C 92% 1014.5 hPa 0 W/m² 0.0 mm 0.000 mm 7.3 km/h
02:55 4.9 °C 3.7 °C 3.4 °C 92% 1014.5 hPa 0 W/m² 0.0 mm 0.000 mm 8.1 km/h
03:00 4.8 °C 3.6 °C 3.8 °C 92% 1014.5 hPa 0 W/m² 0.0 mm 0.000 mm 7.5 km/h
03:05 4.8 °C 3.8 °C 4.4 °C 93% 1014.6 hPa 0 W/m² 0.0 mm 0.000 mm 6.9 km/h
03:10 4.8 °C 3.8 °C 4.6 °C 93% 1014.6 hPa 0 W/m² 0.0 mm 0.000 mm 6.7 km/h
03:15 4.7 °C 3.7 °C 4.7 °C 93% 1014.7 hPa 0 W/m² 0.0 mm 0.000 mm 4.5 km/h
03:20 4.7 °C 3.7 °C 4.7 °C 93% 1014.8 hPa 0 W/m² 0.0 mm 0.000 mm 3.3 km/h
03:25 4.6 °C 3.6 °C 4.6 °C 93% 1014.7 hPa 0 W/m² 0.0 mm 0.000 mm 4.0 km/h
03:30 4.6 °C 3.6 °C 4.6 °C 93% 1014.7 hPa 0 W/m² 0.0 mm 0.000 mm 5.3 km/h
03:35 4.6 °C 3.6 °C 4.6 °C 93% 1014.8 hPa 0 W/m² 0.0 mm 0.000 mm 5.3 km/h
03:40 4.5 °C 3.5 °C 4.5 °C 93% 1014.8 hPa 0 W/m² 0.0 mm 0.000 mm 4.2 km/h
03:45 4.4 °C 3.4 °C 4.4 °C 93% 1014.8 hPa 0 W/m² 0.0 mm 0.000 mm 4.8 km/h
03:50 4.4 °C 3.4 °C 4.4 °C 93% 1014.8 hPa 0 W/m² 0.0 mm 0.000 mm 4.4 km/h
03:55 4.3 °C 3.3 °C 4.3 °C 93% 1014.8 hPa 0 W/m² 0.0 mm 0.000 mm 5.2 km/h
04:00 4.3 °C 3.3 °C 4.3 °C 93% 1014.9 hPa 0 W/m² 0.0 mm 0.000 mm 4.3 km/h
04:05 4.2 °C 3.2 °C 4.2 °C 93% 1014.9 hPa 0 W/m² 0.0 mm 0.000 mm 5.8 km/h
04:10 4.2 °C 3.2 °C 3.9 °C 93% 1014.9 hPa 0 W/m² 0.0 mm 0.000 mm 6.7 km/h
04:15 4.2 °C 3.2 °C 1.6 °C 93% 1014.9 hPa 0 W/m² 0.0 mm 0.000 mm 9.5 km/h
04:20 4.2 °C 3.2 °C 3.2 °C 93% 1015.0 hPa 0 W/m² 0.0 mm 0.000 mm 7.5 km/h